Aviation Digital Data Service (ADDS)

Output produced by TAFs form (1816 UTC 25 July 2014)
found at http://www.aviationweather.gov/adds/tafs/
 
KAPA 251753Z 11010KT 10SM FEW080 SCT120 SCT150 BKN200 32/06 A3014 RMK AO2 SLP119 VIRGA DSNT SW TCU DSNT S-W-N T03170056 10317 20183 58004
KAPA 251738Z 2518/2618 15008KT P6SM VCSH FEW100 BKN220 
     TEMPO 2521/2601 VRB20G40KT -TSRA BKN080CB 
     FM260200 23012KT P6SM BKN100 BKN220 
     FM260500 19010KT P6SM FEW120 BKN220 
     FM261700 03008KT P6SM FEW100 SCT220